createdAt,value
2019-02-09T00:02:11.471Z,51937.12
2019-02-09T00:04:42.744Z,51943.86
2019-02-09T00:07:13.313Z,51961.18
2019-02-09T00:09:44.369Z,51953.48
2019-02-09T00:12:14.933Z,51940.01
2019-02-09T00:14:46.463Z,51949.63
2019-02-09T00:17:17.387Z,51959.26
2019-02-09T00:19:48.117Z,51926.54
2019-02-09T00:22:19.001Z,51937.12
2019-02-09T00:24:49.697Z,51951.55
2019-02-09T00:27:20.728Z,51940.97
2019-02-09T00:29:51.732Z,51940.97
2019-02-09T00:32:22.460Z,51884.18
2019-02-09T00:34:53.026Z,51895.73
2019-02-09T00:37:23.714Z,51915.95
2019-02-09T00:39:54.265Z,51879.37
2019-02-09T00:42:25.003Z,51844.72
2019-02-09T00:44:57.274Z,51876.48
2019-02-09T00:47:28.676Z,51865.90
2019-02-09T00:49:59.583Z,51861.09
2019-02-09T00:52:30.285Z,51846.65
2019-02-09T00:55:00.860Z,51875.52
2019-02-09T00:57:31.575Z,51825.48
2019-02-09T01:00:02.144Z,51846.65
2019-02-09T01:02:32.801Z,51799.49
2019-02-09T01:05:03.349Z,51812.00
2019-02-09T01:07:34.407Z,51767.73
2019-02-09T01:10:07.168Z,51762.92
2019-02-09T01:12:37.896Z,51756.18
2019-02-09T01:15:12.350Z,51764.84
2019-02-09T01:17:42.934Z,51776.39
2019-02-09T01:20:18.054Z,51763.88
2019-02-09T01:22:48.681Z,51776.39
2019-02-09T01:25:19.483Z,51768.69
2019-02-09T01:27:50.172Z,51798.53
2019-02-09T01:30:24.593Z,51807.19
2019-02-09T01:32:55.365Z,51804.30
2019-02-09T01:35:26.641Z,51898.62
2019-02-09T01:37:57.507Z,51912.09
2019-02-09T01:40:28.748Z,51890.92
2019-02-09T01:42:59.641Z,51904.39
2019-02-09T01:45:31.969Z,51929.42
2019-02-09T01:48:02.761Z,51927.50
2019-02-09T01:50:33.863Z,51932.31
2019-02-09T01:53:04.841Z,51930.38
2019-02-09T01:55:35.756Z,51923.64
2019-02-09T01:58:06.674Z,51956.37
2019-02-09T02:00:37.860Z,51913.06
2019-02-09T02:03:08.844Z,51884.18
2019-02-09T02:05:39.828Z,51917.87
2019-02-09T02:08:12.033Z,51895.73
2019-02-09T02:10:42.650Z,51887.07
2019-02-09T02:13:13.263Z,51908.25
2019-02-09T02:15:44.011Z,51877.45
2019-02-09T02:18:14.916Z,51877.45
2019-02-09T02:20:45.808Z,51896.70
2019-02-09T02:23:16.456Z,51881.30
2019-02-09T02:25:47.025Z,51884.18
2019-02-09T02:28:17.610Z,51922.68
2019-02-09T02:30:48.287Z,51875.52
2019-02-09T02:33:19.578Z,51909.21
2019-02-09T02:35:50.211Z,51860.12
2019-02-09T02:38:20.801Z,51883.22
2019-02-09T02:40:51.373Z,51901.51
2019-02-09T02:43:22.756Z,51884.18
2019-02-09T02:45:53.321Z,51929.42
2019-02-09T02:48:23.898Z,52016.04
2019-02-09T02:50:54.608Z,51985.24
2019-02-09T02:53:25.375Z,52010.27
2019-02-09T02:55:55.923Z,52013.16
2019-02-09T02:58:26.897Z,52033.37
2019-02-09T03:00:57.461Z,52065.13
2019-02-09T03:03:28.207Z,52078.61
2019-02-09T03:05:58.781Z,52089.20
2019-02-09T03:08:29.458Z,52069.95
2019-02-09T03:11:00.040Z,52078.61
2019-02-09T03:13:30.705Z,52070.91
2019-02-09T03:16:01.268Z,52102.67
2019-02-09T03:18:31.973Z,52083.42
2019-02-09T03:21:02.535Z,52090.16
2019-02-09T03:23:33.237Z,52136.36
2019-02-09T03:26:03.864Z,52130.58
2019-02-09T03:28:34.605Z,52145.02
2019-02-09T03:31:05.341Z,52151.76
2019-02-09T03:33:36.613Z,52168.12
2019-02-09T03:36:07.327Z,52190.26
2019-02-09T03:38:37.915Z,52161.38
2019-02-09T03:41:08.564Z,52186.41
2019-02-09T03:43:39.221Z,52168.12
2019-02-09T03:46:09.933Z,52176.79
2019-02-09T03:48:40.828Z,52183.52
2019-02-09T03:51:11.838Z,52144.06
2019-02-09T03:53:42.416Z,52170.05
2019-02-09T03:56:13.061Z,52197.96
2019-02-09T03:58:43.729Z,52168.12
2019-02-09T04:01:14.422Z,52226.84
2019-02-09T04:03:44.999Z,52215.29
2019-02-09T04:06:15.698Z,52274.96
2019-02-09T04:08:46.269Z,52321.17
2019-02-09T04:11:16.953Z,52365.45
2019-02-09T04:13:47.522Z,52416.46
2019-02-09T04:16:18.198Z,52466.52
2019-02-09T04:18:48.781Z,52516.58
2019-02-09T04:21:19.483Z,52489.62
2019-02-09T04:23:50.056Z,52518.50
2019-02-09T04:26:20.734Z,52495.40
2019-02-09T04:28:51.290Z,52522.36
2019-02-09T04:31:21.866Z,52499.25
2019-02-09T04:33:52.525Z,52500.21
2019-02-09T04:36:23.079Z,52509.84
2019-02-09T04:38:53.725Z,52489.62
2019-02-09T04:41:24.294Z,52504.07
2019-02-09T04:43:54.959Z,52523.32
2019-02-09T04:46:26.212Z,52545.46
2019-02-09T04:48:57.232Z,52526.20
2019-02-09T04:51:27.803Z,52548.35
2019-02-09T04:53:58.500Z,52552.20
2019-02-09T04:56:29.042Z,52546.42
2019-02-09T04:58:59.660Z,52568.56
2019-02-09T05:01:30.213Z,52560.86
2019-02-09T05:04:00.914Z,52565.67
2019-02-09T05:06:31.789Z,52525.24
2019-02-09T05:09:02.501Z,52492.51
2019-02-09T05:11:33.360Z,52511.77
2019-02-09T05:14:04.161Z,52534.87
2019-02-09T05:16:34.740Z,52505.03
2019-02-09T05:19:05.446Z,52530.05
2019-02-09T05:21:36.024Z,52515.62
2019-02-09T05:24:06.899Z,52449.20
2019-02-09T05:26:37.467Z,52518.50
2019-02-09T05:29:08.144Z,52512.73
2019-02-09T05:31:38.785Z,52537.75
2019-02-09T05:34:10.063Z,52505.99
2019-02-09T05:36:41.480Z,52553.16
2019-02-09T05:39:12.028Z,52523.32
2019-02-09T05:41:42.733Z,52533.91
2019-02-09T05:44:13.290Z,52531.98
2019-02-09T05:46:44.207Z,52526.20
2019-02-09T05:49:15.083Z,52556.05
2019-02-09T05:51:45.789Z,52531.98
2019-02-09T05:54:16.688Z,52530.05
2019-02-09T05:56:47.832Z,52566.64
2019-02-09T05:59:18.378Z,52544.49
2019-02-09T06:01:49.021Z,52550.27
2019-02-09T06:04:19.575Z,52557.97
2019-02-09T06:06:50.283Z,52548.35
2019-02-09T06:09:20.847Z,52555.08
2019-02-09T06:11:51.529Z,52574.34
2019-02-09T06:14:22.731Z,52567.60
2019-02-09T06:16:53.767Z,52530.05
2019-02-09T06:19:24.607Z,52545.46
2019-02-09T06:21:55.940Z,52567.60
2019-02-09T06:24:26.512Z,52532.94
2019-02-09T06:26:57.169Z,52549.31
2019-02-09T06:29:28.090Z,52552.20
2019-02-09T06:31:58.704Z,52544.49
2019-02-09T06:34:29.830Z,52541.61
2019-02-09T06:37:00.724Z,52547.38
2019-02-09T06:39:31.364Z,52550.27
2019-02-09T06:42:01.953Z,52552.20
2019-02-09T06:44:32.582Z,52551.23
2019-02-09T06:47:03.475Z,52549.31
2019-02-09T06:49:34.516Z,52554.12
2019-02-09T06:52:05.244Z,52558.93
2019-02-09T06:54:36.441Z,52530.05
2019-02-09T06:57:07.134Z,52534.87
2019-02-09T06:59:37.769Z,52508.87
2019-02-09T07:02:09.435Z,52504.07
2019-02-09T07:04:40.013Z,52535.83
2019-02-09T07:07:10.654Z,52519.46
2019-02-09T07:09:41.237Z,52512.73
2019-02-09T07:12:11.919Z,52493.47
2019-02-09T07:14:42.776Z,52512.73
2019-02-09T07:17:13.488Z,52506.95
2019-02-09T07:19:44.049Z,52538.72
2019-02-09T07:22:14.728Z,52502.14
2019-02-09T07:24:45.294Z,52500.21
2019-02-09T07:27:15.995Z,52524.28
2019-02-09T07:29:47.264Z,52489.62
2019-02-09T07:32:17.837Z,52525.24
2019-02-09T07:34:48.757Z,52478.07
2019-02-09T07:37:19.396Z,52547.38
2019-02-09T07:39:49.987Z,52514.65
2019-02-09T07:42:20.603Z,52508.87
2019-02-09T07:44:51.579Z,52517.54
2019-02-09T07:47:22.282Z,52505.03
2019-02-09T07:49:52.867Z,52501.18
2019-02-09T07:52:23.542Z,52539.68
2019-02-09T07:54:54.111Z,52550.27
2019-02-09T07:57:24.803Z,52523.32
2019-02-09T07:59:55.368Z,52564.71
2019-02-09T08:02:26.071Z,52545.46
2019-02-09T08:04:56.943Z,52562.79
2019-02-09T08:07:27.655Z,52568.56
2019-02-09T08:09:58.600Z,52599.37
2019-02-09T08:12:29.305Z,52598.40
2019-02-09T08:15:00.175Z,52545.46
2019-02-09T08:17:30.978Z,52546.42
2019-02-09T08:20:01.851Z,52567.60
2019-02-09T08:22:32.552Z,52503.10
2019-02-09T08:25:03.242Z,52483.85
2019-02-09T08:27:33.913Z,52483.85
2019-02-09T08:30:05.177Z,52476.15
2019-02-09T08:32:35.767Z,52474.22
2019-02-09T08:35:07.100Z,52465.56
2019-02-09T08:37:37.708Z,52378.93
2019-02-09T08:40:10.190Z,52362.56
2019-02-09T08:42:40.758Z,52363.52
2019-02-09T08:45:16.332Z,52352.93
2019-02-09T08:47:47.140Z,52371.22
2019-02-09T08:50:49.381Z,52330.79
2019-02-09T08:53:19.988Z,52319.24
2019-02-09T08:55:50.621Z,52295.18
2019-02-09T08:58:21.218Z,52353.89
2019-02-09T09:00:51.859Z,52324.05
2019-02-09T09:03:22.772Z,52282.66
2019-02-09T09:05:53.409Z,52264.37
2019-02-09T09:08:24.327Z,52243.20
2019-02-09T09:10:55.002Z,52233.57
2019-02-09T09:13:25.621Z,52172.93
2019-02-09T09:15:58.240Z,52172.93
2019-02-09T09:18:28.848Z,52174.86
2019-02-09T09:21:02.842Z,52126.73
2019-02-09T09:23:33.447Z,52081.49
2019-02-09T09:26:05.045Z,52075.72
2019-02-09T09:28:35.661Z,52099.78
2019-02-09T09:31:06.596Z,52023.74
2019-02-09T09:33:37.229Z,52010.27
2019-02-09T09:36:08.813Z,51973.70
2019-02-09T09:38:39.802Z,51967.92
2019-02-09T09:41:10.397Z,52034.33
2019-02-09T09:43:41.097Z,52036.25
2019-02-09T09:46:12.433Z,52048.77
2019-02-09T09:48:43.158Z,52016.04
2019-02-09T09:51:14.747Z,52048.77
2019-02-09T09:53:45.463Z,52077.64
2019-02-09T09:56:16.478Z,52048.77
2019-02-09T09:58:47.143Z,52094.97
2019-02-09T10:01:17.826Z,52094.01
2019-02-09T10:03:48.919Z,52083.42
2019-02-09T10:06:19.895Z,52097.86
2019-02-09T10:08:50.547Z,52119.03
2019-02-09T10:11:21.121Z,52114.22
2019-02-09T10:13:51.825Z,52133.47
2019-02-09T10:16:22.733Z,52131.54
2019-02-09T10:18:53.720Z,52092.08
2019-02-09T10:21:24.296Z,52170.05
2019-02-09T10:23:54.952Z,52148.87
2019-02-09T10:26:25.519Z,52154.64
2019-02-09T10:28:56.221Z,52187.37
2019-02-09T10:31:26.808Z,52222.02
2019-02-09T10:33:57.383Z,52272.07
2019-02-09T10:36:27.996Z,52223.95
2019-02-09T10:38:58.695Z,52191.22
2019-02-09T10:41:29.563Z,52244.16
2019-02-09T10:44:00.238Z,52284.59
2019-02-09T10:46:31.091Z,52229.72
2019-02-09T10:49:01.808Z,52169.08
2019-02-09T10:51:32.371Z,52186.41
2019-02-09T10:54:03.033Z,52110.37
2019-02-09T10:56:33.597Z,52073.79
2019-02-09T10:59:04.090Z,52094.97
2019-02-09T11:01:34.630Z,52019.89
2019-02-09T11:04:05.720Z,52049.73
2019-02-09T11:06:37.045Z,52065.13
2019-02-09T11:09:18.216Z,52042.03
2019-02-09T11:11:48.766Z,52106.52
2019-02-09T11:14:19.556Z,52113.26
2019-02-09T11:16:50.106Z,52089.20
2019-02-09T11:19:20.854Z,52118.07
2019-02-09T11:21:51.431Z,52093.04
2019-02-09T11:24:23.213Z,52054.54
2019-02-09T11:26:54.846Z,52110.37
2019-02-09T11:29:26.914Z,52082.46
2019-02-09T11:31:59.153Z,52140.21
2019-02-09T11:34:31.408Z,52145.02
2019-02-09T11:37:02.845Z,52106.52
2019-02-09T11:39:33.562Z,52106.52
2019-02-09T11:42:04.310Z,52083.42
2019-02-09T11:44:41.022Z,52065.13
2019-02-09T11:47:07.825Z,52097.86
2019-02-09T11:49:38.525Z,52046.84
2019-02-09T11:52:09.095Z,52039.14
2019-02-09T11:54:40.160Z,52041.07
2019-02-09T11:57:11.070Z,52068.98
2019-02-09T11:59:41.756Z,52019.89
2019-02-09T12:02:12.304Z,52044.92
2019-02-09T12:04:43.174Z,52060.32
2019-02-09T12:07:13.778Z,52072.83
2019-02-09T12:09:44.811Z,52063.21
2019-02-09T12:12:15.356Z,52064.17
2019-02-09T12:14:46.060Z,52076.68
2019-02-09T12:17:17.275Z,52097.86
2019-02-09T12:19:48.045Z,52128.66
2019-02-09T12:22:18.963Z,52135.39
2019-02-09T12:24:49.690Z,52118.07
2019-02-09T12:27:20.585Z,52127.70
2019-02-09T12:29:51.282Z,52162.35
2019-02-09T12:32:21.841Z,52149.83
2019-02-09T12:34:52.522Z,52160.42
2019-02-09T12:37:23.318Z,52141.17
2019-02-09T12:39:54.216Z,52124.81
2019-02-09T12:42:25.194Z,52160.42
2019-02-09T12:44:55.741Z,52163.31
2019-02-09T12:47:26.280Z,52186.41
2019-02-09T12:49:56.839Z,52211.44
2019-02-09T12:52:27.556Z,52187.37
2019-02-09T12:54:58.116Z,52193.15
2019-02-09T12:57:28.825Z,52204.70
2019-02-09T12:59:59.395Z,52196.04
2019-02-09T13:02:31.014Z,52164.27
2019-02-09T13:05:02.060Z,52133.47
2019-02-09T13:07:32.796Z,52158.50
2019-02-09T13:10:03.671Z,52164.27
2019-02-09T13:12:34.381Z,52143.10
2019-02-09T13:15:05.760Z,52201.81
2019-02-09T13:17:37.099Z,52227.80
2019-02-09T13:20:11.304Z,52203.73
2019-02-09T13:22:42.017Z,52200.85
2019-02-09T13:25:12.881Z,52191.22
2019-02-09T13:27:43.794Z,52246.09
2019-02-09T13:30:24.597Z,52214.32
2019-02-09T13:32:55.144Z,52234.54
2019-02-09T13:35:26.271Z,52208.55
2019-02-09T13:37:57.306Z,52220.10
2019-02-09T13:40:28.560Z,52243.20
2019-02-09T13:42:59.172Z,52212.40
2019-02-09T13:45:33.207Z,52183.52
2019-02-09T13:48:04.308Z,52154.64
2019-02-09T13:50:36.156Z,52143.10
2019-02-09T13:53:08.441Z,52143.10
2019-02-09T13:55:38.973Z,52181.60
2019-02-09T13:58:09.671Z,52191.22
2019-02-09T14:00:40.502Z,52199.88
2019-02-09T14:03:11.139Z,52162.35
2019-02-09T14:05:41.605Z,52158.50
2019-02-09T14:08:12.874Z,52198.92
2019-02-09T14:10:43.415Z,52156.57
2019-02-09T14:13:14.786Z,52124.81
2019-02-09T14:15:45.700Z,52187.37
2019-02-09T14:18:16.285Z,52181.60
2019-02-09T14:20:47.195Z,52231.65
2019-02-09T14:23:17.955Z,52235.50
2019-02-09T14:25:48.499Z,52225.88
2019-02-09T14:28:20.652Z,52273.04
2019-02-09T14:30:51.368Z,52273.04
2019-02-09T14:33:22.018Z,52245.12
2019-02-09T14:35:52.807Z,52287.48
2019-02-09T14:38:23.551Z,52333.68
2019-02-09T14:40:54.096Z,52405.87
2019-02-09T14:43:24.657Z,52371.22
2019-02-09T14:45:55.266Z,52410.69
2019-02-09T14:48:26.802Z,52398.18
2019-02-09T14:50:57.665Z,52415.50
2019-02-09T14:53:28.364Z,52443.42
2019-02-09T14:55:58.900Z,52458.82
2019-02-09T14:58:29.627Z,52464.59
2019-02-09T15:01:00.165Z,52524.28
2019-02-09T15:03:30.961Z,52469.41
2019-02-09T15:06:01.510Z,52481.92
2019-02-09T15:08:32.224Z,52484.81
2019-02-09T15:11:02.809Z,52450.16
2019-02-09T15:13:33.519Z,52464.59
2019-02-09T15:16:43.571Z,52456.89
2019-02-09T15:19:14.418Z,52430.91
2019-02-09T15:21:46.196Z,52447.27
2019-02-09T15:24:16.676Z,52441.49
2019-02-09T15:26:47.729Z,52422.24
2019-02-09T15:29:18.628Z,52393.36
2019-02-09T15:31:49.279Z,52373.15
2019-02-09T15:34:19.816Z,52389.51
2019-02-09T15:36:50.564Z,52401.06
2019-02-09T15:39:21.313Z,52419.36
2019-02-09T15:41:51.874Z,52393.36
2019-02-09T15:44:22.474Z,52351.97
2019-02-09T15:46:53.011Z,52361.60
2019-02-09T15:49:24.296Z,52358.71
2019-02-09T15:51:54.857Z,52349.08
2019-02-09T15:54:25.586Z,52368.34
2019-02-09T15:56:56.140Z,52349.08
2019-02-09T15:59:26.688Z,52385.66
2019-02-09T16:01:57.380Z,52343.31
2019-02-09T16:04:27.910Z,52360.63
2019-02-09T16:06:58.653Z,52351.01
2019-02-09T16:09:29.205Z,52377.96
2019-02-09T16:11:59.840Z,52388.55
2019-02-09T16:14:30.603Z,52367.37
2019-02-09T16:17:01.279Z,52399.14
2019-02-09T16:19:31.838Z,52376.04
2019-02-09T16:22:02.431Z,52423.20
2019-02-09T16:24:32.970Z,52405.87
2019-02-09T16:27:03.747Z,52380.85
2019-02-09T16:29:34.896Z,52368.34
2019-02-09T16:32:05.759Z,52390.48
2019-02-09T16:34:36.291Z,52349.08
2019-02-09T16:37:07.057Z,52377.00
2019-02-09T16:39:37.743Z,52401.06
2019-02-09T16:42:08.279Z,52400.10
2019-02-09T16:44:38.942Z,52423.20
2019-02-09T16:47:09.778Z,52439.57
2019-02-09T16:49:40.493Z,52432.83
2019-02-09T16:52:11.835Z,52411.65
2019-02-09T16:54:42.410Z,52452.08
2019-02-09T16:57:13.272Z,52436.68
2019-02-09T16:59:43.938Z,52440.53
2019-02-09T17:02:14.507Z,52449.20
2019-02-09T17:04:45.198Z,52413.58
2019-02-09T17:07:15.743Z,52396.25
2019-02-09T17:09:46.481Z,52468.45
2019-02-09T17:12:17.341Z,52449.20
2019-02-09T17:14:48.039Z,52471.34
2019-02-09T17:17:18.492Z,52466.52
2019-02-09T17:19:49.860Z,52510.80
2019-02-09T17:22:20.392Z,52505.03
2019-02-09T17:24:51.009Z,52521.39
2019-02-09T17:27:21.457Z,52440.53
2019-02-09T17:29:52.067Z,52499.25
2019-02-09T17:32:22.607Z,52457.86
2019-02-09T17:34:53.281Z,52497.32
2019-02-09T17:37:24.395Z,52498.29
2019-02-09T17:39:54.942Z,52494.44
2019-02-09T17:42:25.691Z,52481.92
2019-02-09T17:44:56.246Z,52512.73
2019-02-09T17:47:26.800Z,52527.17
2019-02-09T17:49:57.332Z,52530.05
2019-02-09T17:52:28.686Z,52535.83
2019-02-09T17:54:59.260Z,52527.17
2019-02-09T17:57:29.699Z,52593.59
2019-02-09T18:00:00.411Z,52558.93
2019-02-09T18:02:30.944Z,52589.74
2019-02-09T18:05:01.785Z,52562.79
2019-02-09T18:07:32.322Z,52584.93
2019-02-09T18:10:02.998Z,52582.04
2019-02-09T18:12:33.951Z,52578.19
2019-02-09T18:15:05.503Z,52572.41
2019-02-09T18:17:36.024Z,52568.56
2019-02-09T18:20:09.041Z,52554.12
2019-02-09T18:22:39.584Z,52557.97
2019-02-09T18:25:12.658Z,52562.79
2019-02-09T18:27:43.202Z,52575.30
2019-02-09T18:30:21.565Z,52584.93
2019-02-09T18:32:52.389Z,52533.91
2019-02-09T18:35:23.474Z,52515.62
2019-02-09T18:37:54.418Z,52558.93
2019-02-09T18:40:25.618Z,52520.43
2019-02-09T18:42:56.166Z,52550.27
2019-02-09T18:45:28.328Z,52513.69
2019-02-09T18:47:59.509Z,52551.23
2019-02-09T18:50:30.180Z,52510.80
2019-02-09T18:53:01.345Z,52532.94
2019-02-09T18:55:33.048Z,52522.36
2019-02-09T18:58:03.583Z,52505.99
2019-02-09T19:00:35.673Z,52519.46
2019-02-09T19:03:08.421Z,52520.43
2019-02-09T19:05:38.974Z,52523.32
2019-02-09T19:08:10.827Z,52537.75
2019-02-09T19:10:41.388Z,52524.28
2019-02-09T19:13:12.227Z,52498.29
2019-02-09T19:15:42.918Z,52498.29
2019-02-09T19:18:14.173Z,52518.50
2019-02-09T19:20:52.943Z,52512.73
2019-02-09T19:23:23.400Z,52492.51
2019-02-09T19:25:54.193Z,52510.80
2019-02-09T19:28:24.858Z,52510.80
2019-02-09T19:30:55.395Z,52528.13
2019-02-09T19:33:27.671Z,52513.69
2019-02-09T19:35:58.964Z,52489.62
2019-02-09T19:38:29.812Z,52480.96
2019-02-09T19:41:00.353Z,52495.40
2019-02-09T19:43:31.215Z,52512.73
2019-02-09T19:46:01.959Z,52506.95
2019-02-09T19:48:32.505Z,52537.75
2019-02-09T19:51:03.127Z,52508.87
2019-02-09T19:53:33.723Z,52485.77
2019-02-09T19:56:04.570Z,52515.62
2019-02-09T19:58:35.510Z,52487.70
2019-02-09T20:01:06.477Z,52495.40
2019-02-09T20:03:37.345Z,52498.29
2019-02-09T20:06:08.033Z,52522.36
2019-02-09T20:08:38.589Z,52495.40
2019-02-09T20:11:09.286Z,52525.24
2019-02-09T20:13:39.824Z,52524.28
2019-02-09T20:16:10.531Z,52480.00
2019-02-09T20:18:41.061Z,52494.44
2019-02-09T20:21:11.797Z,52519.46
2019-02-09T20:23:42.739Z,52539.68
2019-02-09T20:26:13.415Z,52525.24
2019-02-09T20:28:43.957Z,52505.03
2019-02-09T20:31:15.176Z,52534.87
2019-02-09T20:33:45.853Z,52507.91
2019-02-09T20:36:16.481Z,52506.95
2019-02-09T20:38:47.423Z,52522.36
2019-02-09T20:41:17.980Z,52551.23
2019-02-09T20:43:48.529Z,52546.42
2019-02-09T20:46:19.229Z,52524.28
2019-02-09T20:48:49.786Z,52546.42
2019-02-09T20:51:20.488Z,52553.16
2019-02-09T20:53:51.048Z,52546.42
2019-02-09T20:56:21.746Z,52557.01
2019-02-09T20:58:52.281Z,52553.16
2019-02-09T21:01:23.391Z,52545.46
2019-02-09T21:03:53.971Z,52587.81
2019-02-09T21:06:24.687Z,52544.49
2019-02-09T21:08:55.612Z,52580.11
2019-02-09T21:11:26.169Z,52565.67
2019-02-09T21:13:57.032Z,52597.44
2019-02-09T21:16:27.583Z,52588.78
2019-02-09T21:18:58.980Z,52582.04
2019-02-09T21:21:29.512Z,52574.34
2019-02-09T21:24:00.160Z,52609.95
2019-02-09T21:26:30.705Z,52613.80
2019-02-09T21:29:01.318Z,52568.56
2019-02-09T21:31:31.875Z,52624.39
2019-02-09T21:34:02.556Z,52614.77
2019-02-09T21:36:33.024Z,52627.29
2019-02-09T21:39:04.473Z,52614.77
2019-02-09T21:41:36.238Z,52617.66
2019-02-09T21:44:07.082Z,52620.55
2019-02-09T21:46:37.783Z,52606.11
2019-02-09T21:49:08.405Z,52641.72
2019-02-09T21:51:39.169Z,52612.84
2019-02-09T21:54:10.018Z,52575.30
2019-02-09T21:56:40.688Z,52608.03
2019-02-09T21:59:11.254Z,52610.92
2019-02-09T22:01:42.239Z,52603.21
2019-02-09T22:04:12.797Z,52617.66
2019-02-09T22:06:43.418Z,52579.15
2019-02-09T22:09:13.890Z,52606.11
2019-02-09T22:11:44.437Z,52628.25
2019-02-09T22:14:15.246Z,52626.32
2019-02-09T22:16:46.580Z,52634.98
2019-02-09T22:19:17.618Z,52638.84
2019-02-09T22:21:48.405Z,52635.95
2019-02-09T22:24:20.158Z,52625.36
2019-02-09T22:26:50.965Z,52617.66
2019-02-09T22:29:21.712Z,52619.58
2019-02-09T22:31:52.255Z,52612.84
2019-02-09T22:34:23.389Z,52628.25
2019-02-09T22:36:54.128Z,52627.29
2019-02-09T22:39:24.819Z,52616.69
2019-02-09T22:41:55.769Z,52649.43
2019-02-09T22:44:26.586Z,52595.52
2019-02-09T22:46:57.185Z,52606.11
2019-02-09T22:49:28.150Z,52613.80
2019-02-09T22:51:58.727Z,52655.20
2019-02-09T22:54:29.768Z,52601.29
2019-02-09T22:57:00.467Z,52614.77
2019-02-09T22:59:31.510Z,52606.11
2019-02-09T23:02:02.370Z,52639.80
2019-02-09T23:05:13.319Z,52598.40
2019-02-09T23:07:43.983Z,52614.77
2019-02-09T23:10:15.993Z,52615.73
2019-02-09T23:12:48.684Z,52595.52
2019-02-09T23:15:19.294Z,52592.62
2019-02-09T23:17:50.433Z,52587.81
2019-02-09T23:20:21.270Z,52595.52
2019-02-09T23:22:51.956Z,52564.71
2019-02-09T23:25:22.831Z,52573.37
2019-02-09T23:27:53.382Z,52582.04
2019-02-09T23:30:25.270Z,52557.01
2019-02-09T23:32:56.239Z,52557.01
2019-02-09T23:35:27.468Z,52565.67
2019-02-09T23:37:58.073Z,52553.16
2019-02-09T23:40:28.833Z,52541.61
2019-02-09T23:42:59.790Z,52535.83
2019-02-09T23:45:30.260Z,52506.95
2019-02-09T23:48:01.002Z,52498.29
2019-02-09T23:50:31.729Z,52529.09
2019-02-09T23:53:03.153Z,52516.58
2019-02-09T23:55:34.126Z,52520.43
2019-02-09T23:58:04.838Z,52477.11
